createdAt,value
2023-03-23T16:05:07.057Z,14.70
2023-03-23T16:15:10.694Z,14.78
2023-03-23T16:25:16.045Z,14.58
2023-03-23T16:35:19.510Z,14.31
2023-03-23T16:45:25.026Z,14.21
2023-03-23T16:55:28.376Z,13.92
2023-03-23T17:05:32.753Z,14.04
2023-03-23T17:15:38.218Z,14.01
2023-03-23T17:25:43.280Z,13.85
2023-03-23T17:35:47.930Z,13.89
2023-03-23T17:45:52.587Z,13.92
2023-03-23T17:55:56.504Z,13.84
2023-03-23T18:06:03.313Z,13.83
2023-03-23T18:16:07.696Z,13.96
2023-03-23T18:26:14.301Z,14.02
2023-03-23T18:36:20.234Z,14.04
2023-03-23T18:46:24.908Z,14.10
2023-03-23T18:56:27.797Z,14.12
2023-03-23T19:06:33.250Z,14.06
2023-03-23T19:16:37.072Z,14.05
2023-03-23T19:26:44.179Z,14.03
2023-03-23T19:36:54.167Z,14.00
2023-03-23T19:47:00.880Z,13.78
2023-03-23T19:57:04.069Z,13.66
2023-03-23T20:07:08.715Z,13.46
2023-03-23T20:17:12.058Z,13.34
2023-03-23T20:27:17.535Z,13.29
2023-03-23T20:37:20.881Z,13.18
2023-03-23T20:47:25.339Z,13.05
2023-03-23T20:57:28.913Z,12.99
2023-03-23T21:07:33.377Z,13.00
2023-03-23T21:17:36.380Z,13.03
2023-03-23T21:27:41.477Z,12.99
2023-03-23T21:37:44.546Z,12.82
2023-03-23T21:47:49.222Z,12.67
2023-03-23T21:57:52.675Z,12.47
2023-03-23T22:07:57.170Z,12.30
2023-03-23T22:18:00.829Z,12.13
2023-03-23T22:28:06.266Z,12.05
2023-03-23T22:38:09.324Z,12.03
2023-03-23T22:48:13.837Z,11.99
2023-03-23T22:58:17.698Z,11.97
2023-03-23T23:08:22.598Z,12.07
2023-03-23T23:18:26.704Z,12.18
2023-03-23T23:28:31.203Z,12.21
2023-03-23T23:38:34.293Z,12.24
2023-03-23T23:48:39.020Z,12.27
2023-03-23T23:58:42.125Z,12.34
